sensor_id;sensor_type;location;lat;lon;timestamp;temperature;humidity
21622;DHT22;10973;46.706;12.340;2022-08-19T00:02:03;14.60;99.90
21622;DHT22;10973;46.706;12.340;2022-08-19T00:04:33;14.60;99.90
21622;DHT22;10973;46.706;12.340;2022-08-19T00:07:04;14.50;99.90
21622;DHT22;10973;46.706;12.340;2022-08-19T00:09:33;14.50;99.90
21622;DHT22;10973;46.706;12.340;2022-08-19T00:12:00;14.50;99.90
21622;DHT22;10973;46.706;12.340;2022-08-19T00:14:29;14.40;99.90
21622;DHT22;10973;46.706;12.340;2022-08-19T00:16:56;14.50;99.90
21622;DHT22;10973;46.706;12.340;2022-08-19T00:19:25;14.40;99.90
21622;DHT22;10973;46.706;12.340;2022-08-19T00:21:52;14.30;99.90
21622;DHT22;10973;46.706;12.340;2022-08-19T00:24:20;14.30;99.90
21622;DHT22;10973;46.706;12.340;2022-08-19T00:26:47;14.30;99.90
21622;DHT22;10973;46.706;12.340;2022-08-19T00:29:17;14.40;99.90
21622;DHT22;10973;46.706;12.340;2022-08-19T00:31:46;14.40;99.90
21622;DHT22;10973;46.706;12.340;2022-08-19T00:34:16;14.30;99.90
21622;DHT22;10973;46.706;12.340;2022-08-19T00:36:45;14.40;99.90
21622;DHT22;10973;46.706;12.340;2022-08-19T00:39:16;14.40;99.90
21622;DHT22;10973;46.706;12.340;2022-08-19T00:41:44;14.30;99.90
21622;DHT22;10973;46.706;12.340;2022-08-19T00:44:20;14.40;99.90
21622;DHT22;10973;46.706;12.340;2022-08-19T00:46:55;14.30;99.90
21622;DHT22;10973;46.706;12.340;2022-08-19T00:49:32;14.30;99.90
21622;DHT22;10973;46.706;12.340;2022-08-19T00:52:11;14.30;99.90
21622;DHT22;10973;46.706;12.340;2022-08-19T00:54:44;14.30;99.90
21622;DHT22;10973;46.706;12.340;2022-08-19T00:57:22;14.30;99.90
21622;DHT22;10973;46.706;12.340;2022-08-19T00:59:56;14.30;99.90
21622;DHT22;10973;46.706;12.340;2022-08-19T01:02:29;14.30;99.90
21622;DHT22;10973;46.706;12.340;2022-08-19T01:05:02;14.20;99.90
21622;DHT22;10973;46.706;12.340;2022-08-19T01:07:35;14.20;99.90
21622;DHT22;10973;46.706;12.340;2022-08-19T01:10:07;14.20;99.90
21622;DHT22;10973;46.706;12.340;2022-08-19T01:12:38;14.20;99.90
21622;DHT22;10973;46.706;12.340;2022-08-19T01:15:10;14.20;99.90
21622;DHT22;10973;46.706;12.340;2022-08-19T01:17:40;14.30;99.90
21622;DHT22;10973;46.706;12.340;2022-08-19T01:20:18;14.30;99.90
21622;DHT22;10973;46.706;12.340;2022-08-19T01:22:53;14.30;99.90
21622;DHT22;10973;46.706;12.340;2022-08-19T01:25:29;14.40;99.90
21622;DHT22;10973;46.706;12.340;2022-08-19T01:27:59;14.30;99.90
21622;DHT22;10973;46.706;12.340;2022-08-19T01:30:36;14.30;99.90
21622;DHT22;10973;46.706;12.340;2022-08-19T01:33:04;14.20;99.90
21622;DHT22;10973;46.706;12.340;2022-08-19T01:35:32;14.30;99.90
21622;DHT22;10973;46.706;12.340;2022-08-19T01:38:02;14.30;99.90
21622;DHT22;10973;46.706;12.340;2022-08-19T01:40:32;14.30;99.90
21622;DHT22;10973;46.706;12.340;2022-08-19T01:43:02;14.30;99.90
21622;DHT22;10973;46.706;12.340;2022-08-19T01:45:32;14.30;99.90
21622;DHT22;10973;46.706;12.340;2022-08-19T01:48:03;14.30;99.90
21622;DHT22;10973;46.706;12.340;2022-08-19T01:50:32;14.20;99.90
21622;DHT22;10973;46.706;12.340;2022-08-19T01:53:03;14.20;99.90
21622;DHT22;10973;46.706;12.340;2022-08-19T01:55:36;14.20;99.90
21622;DHT22;10973;46.706;12.340;2022-08-19T01:58:12;14.10;99.90
21622;DHT22;10973;46.706;12.340;2022-08-19T02:00:45;14.10;99.90
21622;DHT22;10973;46.706;12.340;2022-08-19T02:03:13;14.20;99.90
21622;DHT22;10973;46.706;12.340;2022-08-19T02:05:41;14.10;99.90
21622;DHT22;10973;46.706;12.340;2022-08-19T02:08:09;14.10;99.90
21622;DHT22;10973;46.706;12.340;2022-08-19T02:10:43;14.00;99.90
21622;DHT22;10973;46.706;12.340;2022-08-19T02:13:12;14.10;99.90
21622;DHT22;10973;46.706;12.340;2022-08-19T02:15:39;14.10;99.90
21622;DHT22;10973;46.706;12.340;2022-08-19T02:18:07;14.20;99.90
21622;DHT22;10973;46.706;12.340;2022-08-19T02:20:35;14.20;99.90
21622;DHT22;10973;46.706;12.340;2022-08-19T02:23:04;14.20;99.90
21622;DHT22;10973;46.706;12.340;2022-08-19T02:25:40;14.10;99.90
21622;DHT22;10973;46.706;12.340;2022-08-19T02:28:08;14.10;99.90
21622;DHT22;10973;46.706;12.340;2022-08-19T02:30:36;14.10;99.90
21622;DHT22;10973;46.706;12.340;2022-08-19T02:33:03;14.10;99.90
21622;DHT22;10973;46.706;12.340;2022-08-19T02:35:31;14.10;99.90
21622;DHT22;10973;46.706;12.340;2022-08-19T02:37:58;14.10;99.90
21622;DHT22;10973;46.706;12.340;2022-08-19T02:40:27;14.10;99.90
21622;DHT22;10973;46.706;12.340;2022-08-19T02:42:56;14.00;99.90
21622;DHT22;10973;46.706;12.340;2022-08-19T02:45:23;14.00;99.90
21622;DHT22;10973;46.706;12.340;2022-08-19T02:47:50;14.10;99.90
21622;DHT22;10973;46.706;12.340;2022-08-19T02:50:18;14.00;99.90
21622;DHT22;10973;46.706;12.340;2022-08-19T02:52:45;14.10;99.90
21622;DHT22;10973;46.706;12.340;2022-08-19T02:55:12;14.10;99.90
21622;DHT22;10973;46.706;12.340;2022-08-19T02:57:39;14.10;99.90
21622;DHT22;10973;46.706;12.340;2022-08-19T03:00:08;14.20;99.90
21622;DHT22;10973;46.706;12.340;2022-08-19T03:02:35;14.20;99.90
21622;DHT22;10973;46.706;12.340;2022-08-19T03:05:03;14.20;99.90
21622;DHT22;10973;46.706;12.340;2022-08-19T03:07:32;14.20;99.90
21622;DHT22;10973;46.706;12.340;2022-08-19T03:09:59;14.20;99.90
21622;DHT22;10973;46.706;12.340;2022-08-19T03:12:27;14.00;99.90
21622;DHT22;10973;46.706;12.340;2022-08-19T03:14:54;14.30;99.90
21622;DHT22;10973;46.706;12.340;2022-08-19T03:17:21;14.20;99.90
21622;DHT22;10973;46.706;12.340;2022-08-19T03:19:49;14.10;99.90
21622;DHT22;10973;46.706;12.340;2022-08-19T03:22:16;14.20;99.90
21622;DHT22;10973;46.706;12.340;2022-08-19T03:24:43;14.10;99.90
21622;DHT22;10973;46.706;12.340;2022-08-19T03:27:10;14.00;99.90
21622;DHT22;10973;46.706;12.340;2022-08-19T03:29:38;14.00;99.90
21622;DHT22;10973;46.706;12.340;2022-08-19T03:32:09;14.10;99.90
21622;DHT22;10973;46.706;12.340;2022-08-19T03:34:57;14.00;99.90
21622;DHT22;10973;46.706;12.340;2022-08-19T03:37:24;14.10;99.90
21622;DHT22;10973;46.706;12.340;2022-08-19T03:39:51;14.10;99.90
21622;DHT22;10973;46.706;12.340;2022-08-19T03:42:19;14.10;99.90
21622;DHT22;10973;46.706;12.340;2022-08-19T03:45:06;14.10;99.90
21622;DHT22;10973;46.706;12.340;2022-08-19T03:47:34;14.10;99.90
21622;DHT22;10973;46.706;12.340;2022-08-19T03:50:01;14.00;99.90
21622;DHT22;10973;46.706;12.340;2022-08-19T03:52:29;14.00;99.90
21622;DHT22;10973;46.706;12.340;2022-08-19T03:54:57;14.00;99.90
21622;DHT22;10973;46.706;12.340;2022-08-19T03:57:24;14.10;99.90
21622;DHT22;10973;46.706;12.340;2022-08-19T03:59:58;14.00;99.90
21622;DHT22;10973;46.706;12.340;2022-08-19T04:02:40;14.00;99.90
21622;DHT22;10973;46.706;12.340;2022-08-19T04:05:08;14.00;99.90
21622;DHT22;10973;46.706;12.340;2022-08-19T04:07:35;14.00;99.90
21622;DHT22;10973;46.706;12.340;2022-08-19T04:10:03;13.90;99.90
21622;DHT22;10973;46.706;12.340;2022-08-19T04:12:31;13.90;99.90
21622;DHT22;10973;46.706;12.340;2022-08-19T04:14:59;14.00;99.90
21622;DHT22;10973;46.706;12.340;2022-08-19T04:17:26;14.10;99.90
21622;DHT22;10973;46.706;12.340;2022-08-19T04:19:53;14.10;99.90
21622;DHT22;10973;46.706;12.340;2022-08-19T04:22:20;14.10;99.90
21622;DHT22;10973;46.706;12.340;2022-08-19T04:24:48;14.10;99.90
21622;DHT22;10973;46.706;12.340;2022-08-19T04:27:15;14.00;99.90
21622;DHT22;10973;46.706;12.340;2022-08-19T04:29:42;14.10;99.90
21622;DHT22;10973;46.706;12.340;2022-08-19T04:32:10;14.10;99.90
21622;DHT22;10973;46.706;12.340;2022-08-19T04:34:37;14.10;99.90
21622;DHT22;10973;46.706;12.340;2022-08-19T04:37:26;14.10;99.90
21622;DHT22;10973;46.706;12.340;2022-08-19T04:40:02;14.10;99.90
21622;DHT22;10973;46.706;12.340;2022-08-19T04:42:31;14.10;99.90
21622;DHT22;10973;46.706;12.340;2022-08-19T04:44:59;14.10;99.90
21622;DHT22;10973;46.706;12.340;2022-08-19T04:47:27;14.10;99.90
21622;DHT22;10973;46.706;12.340;2022-08-19T04:50:14;14.10;99.90
21622;DHT22;10973;46.706;12.340;2022-08-19T04:52:41;14.20;99.90
21622;DHT22;10973;46.706;12.340;2022-08-19T04:55:10;14.10;99.90
21622;DHT22;10973;46.706;12.340;2022-08-19T04:57:38;14.10;99.90
21622;DHT22;10973;46.706;12.340;2022-08-19T05:00:07;14.10;99.90
21622;DHT22;10973;46.706;12.340;2022-08-19T05:02:35;14.10;99.90
21622;DHT22;10973;46.706;12.340;2022-08-19T05:05:05;14.00;99.90
21622;DHT22;10973;46.706;12.340;2022-08-19T05:07:32;14.00;99.90
21622;DHT22;10973;46.706;12.340;2022-08-19T05:10:00;14.10;99.90
21622;DHT22;10973;46.706;12.340;2022-08-19T05:12:27;14.10;99.90
21622;DHT22;10973;46.706;12.340;2022-08-19T05:14:57;14.00;99.90
21622;DHT22;10973;46.706;12.340;2022-08-19T05:17:26;14.10;99.90
21622;DHT22;10973;46.706;12.340;2022-08-19T05:19:59;14.10;99.90
21622;DHT22;10973;46.706;12.340;2022-08-19T05:22:26;14.10;99.90
21622;DHT22;10973;46.706;12.340;2022-08-19T05:24:53;14.20;99.90
21622;DHT22;10973;46.706;12.340;2022-08-19T05:27:38;14.20;99.90
21622;DHT22;10973;46.706;12.340;2022-08-19T05:30:06;14.00;99.90
21622;DHT22;10973;46.706;12.340;2022-08-19T05:32:34;13.90;99.90
21622;DHT22;10973;46.706;12.340;2022-08-19T05:35:01;14.00;99.90
21622;DHT22;10973;46.706;12.340;2022-08-19T05:37:30;13.90;99.90
21622;DHT22;10973;46.706;12.340;2022-08-19T05:39:57;14.00;99.90
21622;DHT22;10973;46.706;12.340;2022-08-19T05:42:24;14.00;99.90
21622;DHT22;10973;46.706;12.340;2022-08-19T05:44:52;14.10;99.90
21622;DHT22;10973;46.706;12.340;2022-08-19T05:47:19;14.10;99.90
21622;DHT22;10973;46.706;12.340;2022-08-19T05:49:49;14.20;99.90
21622;DHT22;10973;46.706;12.340;2022-08-19T05:52:18;14.00;99.90
21622;DHT22;10973;46.706;12.340;2022-08-19T05:54:53;13.90;99.90
21622;DHT22;10973;46.706;12.340;2022-08-19T05:57:21;14.00;99.90
21622;DHT22;10973;46.706;12.340;2022-08-19T05:59:48;14.00;99.90
21622;DHT22;10973;46.706;12.340;2022-08-19T06:02:27;14.10;99.90
21622;DHT22;10973;46.706;12.340;2022-08-19T06:04:56;14.20;99.90
21622;DHT22;10973;46.706;12.340;2022-08-19T06:07:23;14.20;99.90
21622;DHT22;10973;46.706;12.340;2022-08-19T06:09:50;14.10;99.90
21622;DHT22;10973;46.706;12.340;2022-08-19T06:12:31;14.20;99.90
21622;DHT22;10973;46.706;12.340;2022-08-19T06:15:00;14.30;99.90
21622;DHT22;10973;46.706;12.340;2022-08-19T06:17:30;14.30;99.90
21622;DHT22;10973;46.706;12.340;2022-08-19T06:19:59;14.30;99.90
21622;DHT22;10973;46.706;12.340;2022-08-19T06:22:27;14.30;99.90
21622;DHT22;10973;46.706;12.340;2022-08-19T06:24:55;14.30;99.90
21622;DHT22;10973;46.706;12.340;2022-08-19T06:27:23;14.30;99.90
21622;DHT22;10973;46.706;12.340;2022-08-19T06:29:50;14.40;99.90
21622;DHT22;10973;46.706;12.340;2022-08-19T06:32:18;14.40;99.90
21622;DHT22;10973;46.706;12.340;2022-08-19T06:34:45;14.50;99.90
21622;DHT22;10973;46.706;12.340;2022-08-19T06:37:13;14.50;99.90
21622;DHT22;10973;46.706;12.340;2022-08-19T06:39:43;14.50;99.90
21622;DHT22;10973;46.706;12.340;2022-08-19T06:42:12;14.60;99.90
21622;DHT22;10973;46.706;12.340;2022-08-19T06:44:42;14.70;99.90
21622;DHT22;10973;46.706;12.340;2022-08-19T06:47:19;14.70;99.90
21622;DHT22;10973;46.706;12.340;2022-08-19T06:49:54;14.80;99.90
21622;DHT22;10973;46.706;12.340;2022-08-19T06:52:27;14.90;99.90
21622;DHT22;10973;46.706;12.340;2022-08-19T06:54:55;14.90;99.90
21622;DHT22;10973;46.706;12.340;2022-08-19T06:57:26;14.90;99.90
21622;DHT22;10973;46.706;12.340;2022-08-19T06:59:53;14.90;99.90
21622;DHT22;10973;46.706;12.340;2022-08-19T07:02:20;14.90;99.90
21622;DHT22;10973;46.706;12.340;2022-08-19T07:04:48;14.80;99.90
21622;DHT22;10973;46.706;12.340;2022-08-19T07:07:19;14.90;99.90
21622;DHT22;10973;46.706;12.340;2022-08-19T07:09:52;14.90;99.90
21622;DHT22;10973;46.706;12.340;2022-08-19T07:12:28;14.90;99.90
21622;DHT22;10973;46.706;12.340;2022-08-19T07:14:58;15.00;99.90
21622;DHT22;10973;46.706;12.340;2022-08-19T07:17:26;15.00;99.90
21622;DHT22;10973;46.706;12.340;2022-08-19T07:19:54;15.00;99.90
21622;DHT22;10973;46.706;12.340;2022-08-19T07:22:22;15.10;99.90
21622;DHT22;10973;46.706;12.340;2022-08-19T07:24:51;15.10;99.90
21622;DHT22;10973;46.706;12.340;2022-08-19T07:27:19;15.10;99.90
21622;DHT22;10973;46.706;12.340;2022-08-19T07:29:54;15.20;99.90
21622;DHT22;10973;46.706;12.340;2022-08-19T07:32:25;15.30;99.90
21622;DHT22;10973;46.706;12.340;2022-08-19T07:34:53;15.30;99.90
21622;DHT22;10973;46.706;12.340;2022-08-19T07:37:23;15.40;99.90
21622;DHT22;10973;46.706;12.340;2022-08-19T07:39:57;15.40;99.90
21622;DHT22;10973;46.706;12.340;2022-08-19T07:42:25;15.50;99.90
21622;DHT22;10973;46.706;12.340;2022-08-19T07:44:52;15.50;99.90
21622;DHT22;10973;46.706;12.340;2022-08-19T07:47:19;15.50;99.90
21622;DHT22;10973;46.706;12.340;2022-08-19T07:50:09;15.60;99.90
21622;DHT22;10973;46.706;12.340;2022-08-19T07:52:37;15.60;99.90
21622;DHT22;10973;46.706;12.340;2022-08-19T07:55:08;15.70;99.90
21622;DHT22;10973;46.706;12.340;2022-08-19T07:57:56;15.70;99.90
21622;DHT22;10973;46.706;12.340;2022-08-19T08:00:24;15.70;99.90
21622;DHT22;10973;46.706;12.340;2022-08-19T08:02:52;15.80;99.90
21622;DHT22;10973;46.706;12.340;2022-08-19T08:05:23;15.80;99.90
21622;DHT22;10973;46.706;12.340;2022-08-19T08:07:51;15.90;99.90
21622;DHT22;10973;46.706;12.340;2022-08-19T08:10:18;16.00;99.90
21622;DHT22;10973;46.706;12.340;2022-08-19T08:12:47;16.00;99.90
21622;DHT22;10973;46.706;12.340;2022-08-19T08:15:35;16.10;99.90
21622;DHT22;10973;46.706;12.340;2022-08-19T08:18:09;16.10;99.90
21622;DHT22;10973;46.706;12.340;2022-08-19T08:20:37;16.20;99.90
21622;DHT22;10973;46.706;12.340;2022-08-19T08:23:05;16.20;99.90
21622;DHT22;10973;46.706;12.340;2022-08-19T08:25:33;16.30;99.90
21622;DHT22;10973;46.706;12.340;2022-08-19T08:28:02;16.40;99.90
21622;DHT22;10973;46.706;12.340;2022-08-19T08:30:31;16.40;99.90
21622;DHT22;10973;46.706;12.340;2022-08-19T08:32:59;16.50;99.90
21622;DHT22;10973;46.706;12.340;2022-08-19T08:35:29;16.60;99.90
21622;DHT22;10973;46.706;12.340;2022-08-19T08:37:57;16.70;99.90
21622;DHT22;10973;46.706;12.340;2022-08-19T08:40:43;16.70;99.90
21622;DHT22;10973;46.706;12.340;2022-08-19T08:43:29;16.80;99.90
21622;DHT22;10973;46.706;12.340;2022-08-19T08:46:08;16.90;99.90
21622;DHT22;10973;46.706;12.340;2022-08-19T08:51:52;17.10;99.90
21622;DHT22;10973;46.706;12.340;2022-08-19T08:54:33;17.10;99.90
21622;DHT22;10973;46.706;12.340;2022-08-19T08:57:24;17.20;99.90
21622;DHT22;10973;46.706;12.340;2022-08-19T09:00:08;17.30;99.90
21622;DHT22;10973;46.706;12.340;2022-08-19T09:02:42;17.40;99.90
21622;DHT22;10973;46.706;12.340;2022-08-19T09:05:17;17.50;99.90
21622;DHT22;10973;46.706;12.340;2022-08-19T09:07:59;17.50;99.90
21622;DHT22;10973;46.706;12.340;2022-08-19T09:10:39;17.40;99.90
21622;DHT22;10973;46.706;12.340;2022-08-19T09:13:27;17.30;99.90
21622;DHT22;10973;46.706;12.340;2022-08-19T09:16:07;17.30;99.90
21622;DHT22;10973;46.706;12.340;2022-08-19T09:18:45;17.20;99.90
21622;DHT22;10973;46.706;12.340;2022-08-19T09:21:24;17.30;99.90
21622;DHT22;10973;46.706;12.340;2022-08-19T09:23:59;17.30;99.90
21622;DHT22;10973;46.706;12.340;2022-08-19T09:26:31;17.20;99.90
21622;DHT22;10973;46.706;12.340;2022-08-19T09:29:14;17.20;99.90
21622;DHT22;10973;46.706;12.340;2022-08-19T09:31:43;17.20;99.90
21622;DHT22;10973;46.706;12.340;2022-08-19T09:34:10;17.20;99.90
21622;DHT22;10973;46.706;12.340;2022-08-19T09:36:47;17.20;99.90
21622;DHT22;10973;46.706;12.340;2022-08-19T09:39:15;17.30;99.90
21622;DHT22;10973;46.706;12.340;2022-08-19T09:41:43;17.30;99.90
21622;DHT22;10973;46.706;12.340;2022-08-19T09:44:15;17.30;99.90
21622;DHT22;10973;46.706;12.340;2022-08-19T09:46:44;17.30;99.90
21622;DHT22;10973;46.706;12.340;2022-08-19T09:49:11;17.30;99.90
21622;DHT22;10973;46.706;12.340;2022-08-19T09:51:39;17.30;99.90
21622;DHT22;10973;46.706;12.340;2022-08-19T09:54:06;17.40;99.90
21622;DHT22;10973;46.706;12.340;2022-08-19T09:56:37;17.40;99.90
21622;DHT22;10973;46.706;12.340;2022-08-19T09:59:08;17.50;99.90
21622;DHT22;10973;46.706;12.340;2022-08-19T10:01:35;17.50;99.90
21622;DHT22;10973;46.706;12.340;2022-08-19T10:04:02;17.50;99.90
21622;DHT22;10973;46.706;12.340;2022-08-19T10:06:45;17.50;99.90
21622;DHT22;10973;46.706;12.340;2022-08-19T10:09:14;17.50;99.90
21622;DHT22;10973;46.706;12.340;2022-08-19T10:12:00;17.40;99.90
21622;DHT22;10973;46.706;12.340;2022-08-19T10:14:29;17.50;99.90
21622;DHT22;10973;46.706;12.340;2022-08-19T10:16:57;17.60;99.90
21622;DHT22;10973;46.706;12.340;2022-08-19T10:19:25;17.60;99.90
21622;DHT22;10973;46.706;12.340;2022-08-19T10:21:53;17.70;99.90
21622;DHT22;10973;46.706;12.340;2022-08-19T10:24:26;17.90;99.90
21622;DHT22;10973;46.706;12.340;2022-08-19T10:26:54;18.10;99.90
21622;DHT22;10973;46.706;12.340;2022-08-19T10:29:26;18.30;99.90
21622;DHT22;10973;46.706;12.340;2022-08-19T10:32:00;18.30;99.90
21622;DHT22;10973;46.706;12.340;2022-08-19T10:34:30;18.40;99.90
21622;DHT22;10973;46.706;12.340;2022-08-19T10:36:58;18.40;99.90
21622;DHT22;10973;46.706;12.340;2022-08-19T10:39:29;18.40;99.90
21622;DHT22;10973;46.706;12.340;2022-08-19T10:42:09;18.40;99.90
21622;DHT22;10973;46.706;12.340;2022-08-19T10:44:37;18.30;99.90
21622;DHT22;10973;46.706;12.340;2022-08-19T10:47:05;18.30;99.90
21622;DHT22;10973;46.706;12.340;2022-08-19T10:49:51;18.20;99.90
21622;DHT22;10973;46.706;12.340;2022-08-19T10:52:21;18.10;99.90
21622;DHT22;10973;46.706;12.340;2022-08-19T10:54:58;18.20;99.90
21622;DHT22;10973;46.706;12.340;2022-08-19T10:57:31;18.20;99.90
21622;DHT22;10973;46.706;12.340;2022-08-19T11:00:20;18.10;99.90
21622;DHT22;10973;46.706;12.340;2022-08-19T11:02:49;18.10;99.90
21622;DHT22;10973;46.706;12.340;2022-08-19T11:05:18;18.10;99.90
21622;DHT22;10973;46.706;12.340;2022-08-19T11:07:45;18.10;99.90
21622;DHT22;10973;46.706;12.340;2022-08-19T11:10:14;18.10;99.90
21622;DHT22;10973;46.706;12.340;2022-08-19T11:12:47;18.20;99.90
21622;DHT22;10973;46.706;12.340;2022-08-19T11:15:14;18.20;99.90
21622;DHT22;10973;46.706;12.340;2022-08-19T11:17:42;18.30;99.90
21622;DHT22;10973;46.706;12.340;2022-08-19T11:20:14;18.30;99.90
21622;DHT22;10973;46.706;12.340;2022-08-19T11:22:42;18.30;99.90
21622;DHT22;10973;46.706;12.340;2022-08-19T11:25:10;18.20;99.90
21622;DHT22;10973;46.706;12.340;2022-08-19T11:27:41;18.20;99.90
21622;DHT22;10973;46.706;12.340;2022-08-19T11:30:11;18.20;99.90
21622;DHT22;10973;46.706;12.340;2022-08-19T11:32:41;18.20;99.90
21622;DHT22;10973;46.706;12.340;2022-08-19T11:35:15;18.30;99.90
21622;DHT22;10973;46.706;12.340;2022-08-19T11:37:42;18.40;99.90
21622;DHT22;10973;46.706;12.340;2022-08-19T11:40:10;19.00;99.90
21622;DHT22;10973;46.706;12.340;2022-08-19T11:42:38;20.00;99.90
21622;DHT22;10973;46.706;12.340;2022-08-19T11:47:34;21.30;99.90
21622;DHT22;10973;46.706;12.340;2022-08-19T11:50:01;21.80;99.90
21622;DHT22;10973;46.706;12.340;2022-08-19T11:52:28;21.80;99.90
21622;DHT22;10973;46.706;12.340;2022-08-19T11:54:55;22.30;99.90
21622;DHT22;10973;46.706;12.340;2022-08-19T11:57:23;22.60;99.90
21622;DHT22;10973;46.706;12.340;2022-08-19T11:59:53;22.60;99.90
21622;DHT22;10973;46.706;12.340;2022-08-19T12:02:20;22.60;99.90
21622;DHT22;10973;46.706;12.340;2022-08-19T12:04:47;22.20;99.90
21622;DHT22;10973;46.706;12.340;2022-08-19T12:07:15;21.00;99.90
21622;DHT22;10973;46.706;12.340;2022-08-19T12:09:42;21.00;99.90
21622;DHT22;10973;46.706;12.340;2022-08-19T12:12:11;20.50;99.90
21622;DHT22;10973;46.706;12.340;2022-08-19T12:14:39;20.20;99.90
21622;DHT22;10973;46.706;12.340;2022-08-19T12:17:06;19.70;99.90
21622;DHT22;10973;46.706;12.340;2022-08-19T12:19:35;19.50;99.90
21622;DHT22;10973;46.706;12.340;2022-08-19T12:22:03;19.40;99.90
21622;DHT22;10973;46.706;12.340;2022-08-19T12:24:31;19.30;99.90
21622;DHT22;10973;46.706;12.340;2022-08-19T12:26:59;19.20;99.90
21622;DHT22;10973;46.706;12.340;2022-08-19T12:29:29;19.10;99.90
21622;DHT22;10973;46.706;12.340;2022-08-19T12:31:58;19.00;99.90
21622;DHT22;10973;46.706;12.340;2022-08-19T12:34:27;18.70;99.90
21622;DHT22;10973;46.706;12.340;2022-08-19T12:36:57;18.70;99.90
21622;DHT22;10973;46.706;12.340;2022-08-19T12:39:25;18.60;99.90
21622;DHT22;10973;46.706;12.340;2022-08-19T12:41:53;18.60;99.90
21622;DHT22;10973;46.706;12.340;2022-08-19T12:44:22;18.60;99.90
21622;DHT22;10973;46.706;12.340;2022-08-19T12:46:56;18.60;99.90
21622;DHT22;10973;46.706;12.340;2022-08-19T12:49:24;18.50;99.90
21622;DHT22;10973;46.706;12.340;2022-08-19T12:52:11;18.50;99.90
21622;DHT22;10973;46.706;12.340;2022-08-19T12:54:39;18.40;99.90
21622;DHT22;10973;46.706;12.340;2022-08-19T12:57:07;18.20;99.90
21622;DHT22;10973;46.706;12.340;2022-08-19T12:59:37;18.00;99.90
21622;DHT22;10973;46.706;12.340;2022-08-19T13:02:06;18.00;99.90
21622;DHT22;10973;46.706;12.340;2022-08-19T13:04:35;18.00;99.90
21622;DHT22;10973;46.706;12.340;2022-08-19T13:07:02;17.90;99.90
21622;DHT22;10973;46.706;12.340;2022-08-19T13:09:30;17.90;99.90
21622;DHT22;10973;46.706;12.340;2022-08-19T13:11:57;17.90;99.90
21622;DHT22;10973;46.706;12.340;2022-08-19T13:14:24;17.90;99.90
21622;DHT22;10973;46.706;12.340;2022-08-19T13:16:52;17.90;99.90
21622;DHT22;10973;46.706;12.340;2022-08-19T13:19:20;17.90;99.90
21622;DHT22;10973;46.706;12.340;2022-08-19T13:21:50;17.90;99.90
21622;DHT22;10973;46.706;12.340;2022-08-19T13:24:25;17.80;99.90
21622;DHT22;10973;46.706;12.340;2022-08-19T13:27:00;17.70;99.90
21622;DHT22;10973;46.706;12.340;2022-08-19T13:29:27;17.60;99.90
21622;DHT22;10973;46.706;12.340;2022-08-19T13:31:55;17.60;99.90
21622;DHT22;10973;46.706;12.340;2022-08-19T13:34:32;17.60;99.90
21622;DHT22;10973;46.706;12.340;2022-08-19T13:37:01;17.50;99.90
21622;DHT22;10973;46.706;12.340;2022-08-19T13:39:31;17.40;99.90
21622;DHT22;10973;46.706;12.340;2022-08-19T13:56:52;18.90;99.90
21622;DHT22;10973;46.706;12.340;2022-08-19T13:59:19;18.80;99.90
21622;DHT22;10973;46.706;12.340;2022-08-19T14:01:47;19.10;99.90
21622;DHT22;10973;46.706;12.340;2022-08-19T14:04:14;19.70;99.90
21622;DHT22;10973;46.706;12.340;2022-08-19T14:06:41;20.20;99.90
21622;DHT22;10973;46.706;12.340;2022-08-19T14:09:08;20.50;99.90
21622;DHT22;10973;46.706;12.340;2022-08-19T14:11:35;20.70;99.90
21622;DHT22;10973;46.706;12.340;2022-08-19T14:14:03;20.30;99.90
21622;DHT22;10973;46.706;12.340;2022-08-19T14:16:30;20.10;99.90
21622;DHT22;10973;46.706;12.340;2022-08-19T14:18:57;20.20;99.90
21622;DHT22;10973;46.706;12.340;2022-08-19T14:21:25;20.50;99.90
21622;DHT22;10973;46.706;12.340;2022-08-19T14:23:53;20.50;99.90
21622;DHT22;10973;46.706;12.340;2022-08-19T14:26:21;20.40;99.90
21622;DHT22;10973;46.706;12.340;2022-08-19T14:28:50;20.30;99.90
21622;DHT22;10973;46.706;12.340;2022-08-19T14:31:19;20.10;99.90
21622;DHT22;10973;46.706;12.340;2022-08-19T14:33:47;20.00;99.90
21622;DHT22;10973;46.706;12.340;2022-08-19T14:36:15;19.90;99.90
21622;DHT22;10973;46.706;12.340;2022-08-19T14:38:43;20.10;99.90
21622;DHT22;10973;46.706;12.340;2022-08-19T14:41:19;20.50;99.90
21622;DHT22;10973;46.706;12.340;2022-08-19T14:43:50;20.60;99.90
21622;DHT22;10973;46.706;12.340;2022-08-19T14:46:21;20.90;99.90
21622;DHT22;10973;46.706;12.340;2022-08-19T14:48:51;20.70;99.90
21622;DHT22;10973;46.706;12.340;2022-08-19T14:51:20;20.30;99.90
21622;DHT22;10973;46.706;12.340;2022-08-19T14:53:50;20.40;99.90
21622;DHT22;10973;46.706;12.340;2022-08-19T14:56:21;20.20;99.90
21622;DHT22;10973;46.706;12.340;2022-08-19T14:58:50;19.90;99.90
21622;DHT22;10973;46.706;12.340;2022-08-19T15:01:20;19.80;99.90
21622;DHT22;10973;46.706;12.340;2022-08-19T15:03:50;19.70;99.90
21622;DHT22;10973;46.706;12.340;2022-08-19T15:06:17;19.60;99.90
21622;DHT22;10973;46.706;12.340;2022-08-19T15:08:47;19.50;99.90
21622;DHT22;10973;46.706;12.340;2022-08-19T15:11:17;19.30;99.90
21622;DHT22;10973;46.706;12.340;2022-08-19T15:13:45;19.10;99.90
21622;DHT22;10973;46.706;12.340;2022-08-19T15:16:13;18.90;99.90
21622;DHT22;10973;46.706;12.340;2022-08-19T15:18:45;18.70;99.90
21622;DHT22;10973;46.706;12.340;2022-08-19T15:21:15;18.50;99.90
21622;DHT22;10973;46.706;12.340;2022-08-19T15:23:53;18.30;99.90
21622;DHT22;10973;46.706;12.340;2022-08-19T15:26:22;18.20;99.90
21622;DHT22;10973;46.706;12.340;2022-08-19T15:28:50;18.10;99.90
21622;DHT22;10973;46.706;12.340;2022-08-19T15:31:19;17.90;99.90
21622;DHT22;10973;46.706;12.340;2022-08-19T15:33:56;17.90;99.90
21622;DHT22;10973;46.706;12.340;2022-08-19T15:36:23;17.80;99.90
21622;DHT22;10973;46.706;12.340;2022-08-19T15:38:51;17.70;99.90
21622;DHT22;10973;46.706;12.340;2022-08-19T15:41:23;17.60;99.90
21622;DHT22;10973;46.706;12.340;2022-08-19T15:44:01;17.40;99.90
21622;DHT22;10973;46.706;12.340;2022-08-19T15:46:32;17.30;99.90
21622;DHT22;10973;46.706;12.340;2022-08-19T15:49:01;17.20;99.90
21622;DHT22;10973;46.706;12.340;2022-08-19T15:51:30;17.20;99.90
21622;DHT22;10973;46.706;12.340;2022-08-19T15:53:59;17.20;99.90
21622;DHT22;10973;46.706;12.340;2022-08-19T15:58:58;17.00;99.90